Terminal Aerodrome Forecast
Issued by NWS

Home | Current Version | Previous Version | Text Only | Print | Product List | Glossary On
Versions: 1 2 3 4 5 6 7 8 9 10 11 12 13 14 15
000
FTUS44 KEPZ 280526
TAFDMN
TAF
KDMN 280526Z 2806/2906 25008KT P6SM SCT100 BKN250
     FM281800 23006KT P6SM BKN250
     FM290000 26010KT P6SM VCTS BKN050CB BKN250=

USA.gov is the U.S. government's official web portal to all federal, state and local government web resources and services.